sensor_id;sensor_type;location;lat;lon;timestamp;P1;durP1;ratioP1;P2;durP2;ratioP2
21416;SDS011;10869;52.238;10.716;2023-03-25T04:03:28;4.20;;;1.20;;
21416;SDS011;10869;52.238;10.716;2023-03-25T04:09:24;4.87;;;1.00;;
21416;SDS011;10869;52.238;10.716;2023-03-25T04:12:16;3.77;;;1.20;;
21416;SDS011;10869;52.238;10.716;2023-03-25T04:17:30;2.27;;;0.70;;
21416;SDS011;10869;52.238;10.716;2023-03-25T04:20:02;6.47;;;1.13;;
21416;SDS011;10869;52.238;10.716;2023-03-25T04:22:32;3.10;;;1.03;;
21416;SDS011;10869;52.238;10.716;2023-03-25T04:25:03;3.67;;;1.10;;
21416;SDS011;10869;52.238;10.716;2023-03-25T04:27:31;6.77;;;1.33;;
21416;SDS011;10869;52.238;10.716;2023-03-25T04:30:06;5.07;;;1.13;;
21416;SDS011;10869;52.238;10.716;2023-03-25T04:32:46;3.20;;;0.97;;
21416;SDS011;10869;52.238;10.716;2023-03-25T04:35:49;3.97;;;0.80;;
21416;SDS011;10869;52.238;10.716;2023-03-25T04:38:19;6.20;;;1.07;;
21416;SDS011;10869;52.238;10.716;2023-03-25T04:40:45;2.73;;;0.87;;
21416;SDS011;10869;52.238;10.716;2023-03-25T04:43:14;4.57;;;1.20;;
21416;SDS011;10869;52.238;10.716;2023-03-25T04:45:42;4.27;;;0.80;;
21416;SDS011;10869;52.238;10.716;2023-03-25T04:48:23;5.87;;;0.87;;
21416;SDS011;10869;52.238;10.716;2023-03-25T04:51:12;7.70;;;1.27;;
21416;SDS011;10869;52.238;10.716;2023-03-25T04:53:42;4.03;;;1.30;;
21416;SDS011;10869;52.238;10.716;2023-03-25T04:56:11;7.87;;;1.67;;
21416;SDS011;10869;52.238;10.716;2023-03-25T04:58:40;7.60;;;2.00;;
21416;SDS011;10869;52.238;10.716;2023-03-25T05:01:28;4.20;;;1.30;;
21416;SDS011;10869;52.238;10.716;2023-03-25T05:03:56;4.37;;;1.13;;
21416;SDS011;10869;52.238;10.716;2023-03-25T05:06:35;9.03;;;1.77;;
21416;SDS011;10869;52.238;10.716;2023-03-25T05:09:10;7.87;;;1.73;;
21416;SDS011;10869;52.238;10.716;2023-03-25T05:11:43;6.57;;;1.50;;
21416;SDS011;10869;52.238;10.716;2023-03-25T05:14:12;8.23;;;1.60;;
21416;SDS011;10869;52.238;10.716;2023-03-25T05:16:45;6.43;;;1.53;;
21416;SDS011;10869;52.238;10.716;2023-03-25T05:19:14;6.83;;;1.40;;
21416;SDS011;10869;52.238;10.716;2023-03-25T05:21:43;5.43;;;1.50;;
21416;SDS011;10869;52.238;10.716;2023-03-25T05:24:09;6.30;;;1.57;;
21416;SDS011;10869;52.238;10.716;2023-03-25T05:26:38;6.67;;;1.30;;
21416;SDS011;10869;52.238;10.716;2023-03-25T05:29:17;4.57;;;0.97;;
21416;SDS011;10869;52.238;10.716;2023-03-25T05:31:48;3.13;;;1.00;;
21416;SDS011;10869;52.238;10.716;2023-03-25T05:39:50;4.27;;;1.30;;
21416;SDS011;10869;52.238;10.716;2023-03-25T05:55:19;9.33;;;2.83;;
21416;SDS011;10869;52.238;10.716;2023-03-25T05:57:48;9.00;;;2.87;;
21416;SDS011;10869;52.238;10.716;2023-03-25T06:00:19;11.00;;;4.47;;
21416;SDS011;10869;52.238;10.716;2023-03-25T06:02:49;11.40;;;4.90;;
21416;SDS011;10869;52.238;10.716;2023-03-25T06:05:56;14.83;;;6.30;;
21416;SDS011;10869;52.238;10.716;2023-03-25T06:08:22;16.03;;;5.83;;
21416;SDS011;10869;52.238;10.716;2023-03-25T06:10:51;12.37;;;5.80;;
21416;SDS011;10869;52.238;10.716;2023-03-25T06:13:25;15.67;;;5.70;;
21416;SDS011;10869;52.238;10.716;2023-03-25T06:16:32;12.13;;;5.23;;
21416;SDS011;10869;52.238;10.716;2023-03-25T06:18:59;8.73;;;4.90;;
21416;SDS011;10869;52.238;10.716;2023-03-25T06:24:01;12.20;;;6.30;;
21416;SDS011;10869;52.238;10.716;2023-03-25T06:26:28;10.53;;;5.67;;
21416;SDS011;10869;52.238;10.716;2023-03-25T06:28:54;9.07;;;3.67;;
21416;SDS011;10869;52.238;10.716;2023-03-25T06:31:26;10.73;;;4.27;;
21416;SDS011;10869;52.238;10.716;2023-03-25T06:33:53;12.27;;;4.47;;
21416;SDS011;10869;52.238;10.716;2023-03-25T06:49:38;9.73;;;3.50;;
21416;SDS011;10869;52.238;10.716;2023-03-25T06:52:04;9.00;;;3.60;;
21416;SDS011;10869;52.238;10.716;2023-03-25T06:54:30;5.13;;;1.30;;
21416;SDS011;10869;52.238;10.716;2023-03-25T06:56:56;6.77;;;1.80;;
21416;SDS011;10869;52.238;10.716;2023-03-25T06:59:24;7.80;;;1.40;;
21416;SDS011;10869;52.238;10.716;2023-03-25T07:01:50;4.77;;;1.70;;
21416;SDS011;10869;52.238;10.716;2023-03-25T07:04:16;8.93;;;2.13;;
21416;SDS011;10869;52.238;10.716;2023-03-25T07:06:41;9.73;;;2.23;;
21416;SDS011;10869;52.238;10.716;2023-03-25T07:09:07;6.27;;;1.90;;
21416;SDS011;10869;52.238;10.716;2023-03-25T07:11:33;2.47;;;1.10;;
21416;SDS011;10869;52.238;10.716;2023-03-25T07:14:00;9.33;;;2.07;;
21416;SDS011;10869;52.238;10.716;2023-03-25T07:19:10;4.17;;;1.33;;
21416;SDS011;10869;52.238;10.716;2023-03-25T07:21:36;5.50;;;1.60;;
21416;SDS011;10869;52.238;10.716;2023-03-25T07:24:01;6.23;;;1.50;;
21416;SDS011;10869;52.238;10.716;2023-03-25T07:26:27;5.90;;;1.30;;
21416;SDS011;10869;52.238;10.716;2023-03-25T07:28:53;6.57;;;1.13;;
21416;SDS011;10869;52.238;10.716;2023-03-25T07:31:18;7.33;;;1.70;;
21416;SDS011;10869;52.238;10.716;2023-03-25T07:33:44;3.17;;;1.00;;
21416;SDS011;10869;52.238;10.716;2023-03-25T07:36:10;5.70;;;1.10;;
21416;SDS011;10869;52.238;10.716;2023-03-25T07:41:59;4.30;;;1.00;;
21416;SDS011;10869;52.238;10.716;2023-03-25T07:44:25;5.97;;;2.30;;
21416;SDS011;10869;52.238;10.716;2023-03-25T07:46:51;6.80;;;2.57;;
21416;SDS011;10869;52.238;10.716;2023-03-25T07:49:16;11.93;;;5.43;;
21416;SDS011;10869;52.238;10.716;2023-03-25T07:55:04;5.83;;;2.83;;
21416;SDS011;10869;52.238;10.716;2023-03-25T07:57:30;7.77;;;2.80;;
21416;SDS011;10869;52.238;10.716;2023-03-25T07:59:56;6.23;;;3.10;;
21416;SDS011;10869;52.238;10.716;2023-03-25T08:02:22;2.90;;;1.40;;
21416;SDS011;10869;52.238;10.716;2023-03-25T08:04:48;14.40;;;6.27;;
21416;SDS011;10869;52.238;10.716;2023-03-25T08:10:35;10.90;;;4.60;;
21416;SDS011;10869;52.238;10.716;2023-03-25T08:13:01;11.43;;;4.83;;
21416;SDS011;10869;52.238;10.716;2023-03-25T08:15:27;7.10;;;2.63;;
21416;SDS011;10869;52.238;10.716;2023-03-25T08:17:52;7.93;;;2.23;;
21416;SDS011;10869;52.238;10.716;2023-03-25T08:20:18;5.93;;;2.50;;
21416;SDS011;10869;52.238;10.716;2023-03-25T08:22:44;7.07;;;2.40;;
21416;SDS011;10869;52.238;10.716;2023-03-25T08:25:11;4.87;;;1.80;;
21416;SDS011;10869;52.238;10.716;2023-03-25T08:27:37;5.60;;;1.90;;
21416;SDS011;10869;52.238;10.716;2023-03-25T08:33:25;5.67;;;1.73;;
21416;SDS011;10869;52.238;10.716;2023-03-25T08:35:58;6.77;;;2.17;;
21416;SDS011;10869;52.238;10.716;2023-03-25T08:38:25;5.23;;;1.60;;
21416;SDS011;10869;52.238;10.716;2023-03-25T08:40:56;5.40;;;1.30;;
21416;SDS011;10869;52.238;10.716;2023-03-25T08:43:25;5.87;;;1.47;;
21416;SDS011;10869;52.238;10.716;2023-03-25T08:45:51;7.00;;;2.20;;
21416;SDS011;10869;52.238;10.716;2023-03-25T08:48:16;3.47;;;1.30;;
21416;SDS011;10869;52.238;10.716;2023-03-25T08:50:42;4.17;;;1.43;;
21416;SDS011;10869;52.238;10.716;2023-03-25T09:02:08;5.53;;;1.60;;
21416;SDS011;10869;52.238;10.716;2023-03-25T09:07:59;6.53;;;1.57;;
21416;SDS011;10869;52.238;10.716;2023-03-25T09:10:25;4.17;;;1.67;;
21416;SDS011;10869;52.238;10.716;2023-03-25T09:12:51;7.73;;;1.53;;
21416;SDS011;10869;52.238;10.716;2023-03-25T09:15:16;11.00;;;2.53;;
21416;SDS011;10869;52.238;10.716;2023-03-25T09:17:42;6.13;;;1.43;;
21416;SDS011;10869;52.238;10.716;2023-03-25T09:23:30;4.80;;;1.23;;
21416;SDS011;10869;52.238;10.716;2023-03-25T09:25:58;2.97;;;1.00;;
21416;SDS011;10869;52.238;10.716;2023-03-25T09:28:26;3.47;;;1.10;;
21416;SDS011;10869;52.238;10.716;2023-03-25T09:30:53;3.67;;;1.17;;
21416;SDS011;10869;52.238;10.716;2023-03-25T09:33:19;5.30;;;1.27;;
21416;SDS011;10869;52.238;10.716;2023-03-25T09:35:44;6.87;;;1.20;;
21416;SDS011;10869;52.238;10.716;2023-03-25T09:47:13;3.17;;;1.03;;
21416;SDS011;10869;52.238;10.716;2023-03-25T09:49:41;3.87;;;1.17;;
21416;SDS011;10869;52.238;10.716;2023-03-25T09:52:17;5.00;;;1.50;;
21416;SDS011;10869;52.238;10.716;2023-03-25T09:54:50;4.97;;;1.17;;
21416;SDS011;10869;52.238;10.716;2023-03-25T09:57:20;4.37;;;1.17;;
21416;SDS011;10869;52.238;10.716;2023-03-25T09:59:51;1.60;;;0.70;;
21416;SDS011;10869;52.238;10.716;2023-03-25T10:02:25;3.67;;;0.70;;
21416;SDS011;10869;52.238;10.716;2023-03-25T10:08:11;1.37;;;0.60;;
21416;SDS011;10869;52.238;10.716;2023-03-25T10:10:50;6.00;;;1.13;;
21416;SDS011;10869;52.238;10.716;2023-03-25T10:13:41;2.87;;;0.60;;
21416;SDS011;10869;52.238;10.716;2023-03-25T10:16:24;4.40;;;0.93;;
21416;SDS011;10869;52.238;10.716;2023-03-25T10:21:52;7.23;;;0.93;;
21416;SDS011;10869;52.238;10.716;2023-03-25T10:24:43;1.60;;;0.73;;
21416;SDS011;10869;52.238;10.716;2023-03-25T10:29:52;3.60;;;0.87;;
21416;SDS011;10869;52.238;10.716;2023-03-25T10:37:58;3.83;;;0.80;;
21416;SDS011;10869;52.238;10.716;2023-03-25T10:40:33;4.87;;;1.10;;
21416;SDS011;10869;52.238;10.716;2023-03-25T10:43:12;3.47;;;0.93;;
21416;SDS011;10869;52.238;10.716;2023-03-25T10:45:43;3.93;;;1.10;;
21416;SDS011;10869;52.238;10.716;2023-03-25T10:50:40;3.07;;;0.90;;
21416;SDS011;10869;52.238;10.716;2023-03-25T10:53:09;5.37;;;1.07;;
21416;SDS011;10869;52.238;10.716;2023-03-25T10:55:45;4.07;;;0.93;;
21416;SDS011;10869;52.238;10.716;2023-03-25T10:58:17;6.53;;;1.20;;
21416;SDS011;10869;52.238;10.716;2023-03-25T11:00:44;4.10;;;0.97;;
21416;SDS011;10869;52.238;10.716;2023-03-25T11:03:14;5.63;;;1.00;;
21416;SDS011;10869;52.238;10.716;2023-03-25T11:05:51;4.83;;;1.33;;
21416;SDS011;10869;52.238;10.716;2023-03-25T11:08:18;6.83;;;1.83;;
21416;SDS011;10869;52.238;10.716;2023-03-25T11:10:49;6.47;;;1.63;;
21416;SDS011;10869;52.238;10.716;2023-03-25T11:13:22;7.47;;;1.83;;
21416;SDS011;10869;52.238;10.716;2023-03-25T11:15:53;3.73;;;1.10;;
21416;SDS011;10869;52.238;10.716;2023-03-25T11:21:02;4.83;;;1.50;;
21416;SDS011;10869;52.238;10.716;2023-03-25T11:26:07;5.00;;;1.60;;
21416;SDS011;10869;52.238;10.716;2023-03-25T11:28:44;7.17;;;1.60;;
21416;SDS011;10869;52.238;10.716;2023-03-25T11:31:16;12.03;;;2.20;;
21416;SDS011;10869;52.238;10.716;2023-03-25T11:36:35;6.97;;;1.57;;
21416;SDS011;10869;52.238;10.716;2023-03-25T11:42:39;8.30;;;2.50;;
21416;SDS011;10869;52.238;10.716;2023-03-25T11:45:18;5.10;;;1.70;;
21416;SDS011;10869;52.238;10.716;2023-03-25T11:47:45;7.27;;;1.80;;
21416;SDS011;10869;52.238;10.716;2023-03-25T11:50:19;5.10;;;1.77;;
21416;SDS011;10869;52.238;10.716;2023-03-25T11:52:57;5.33;;;1.83;;
21416;SDS011;10869;52.238;10.716;2023-03-25T11:58:23;5.73;;;1.50;;
21416;SDS011;10869;52.238;10.716;2023-03-25T12:00:59;7.97;;;1.90;;
21416;SDS011;10869;52.238;10.716;2023-03-25T12:03:30;5.10;;;1.30;;
21416;SDS011;10869;52.238;10.716;2023-03-25T12:09:19;5.57;;;1.57;;
21416;SDS011;10869;52.238;10.716;2023-03-25T12:11:34;7.27;;;1.87;;
21416;SDS011;10869;52.238;10.716;2023-03-25T12:41:34;8.33;;;1.90;;
21416;SDS011;10869;52.238;10.716;2023-03-25T12:44:02;6.40;;;1.67;;
21416;SDS011;10869;52.238;10.716;2023-03-25T12:46:41;8.03;;;2.37;;
21416;SDS011;10869;52.238;10.716;2023-03-25T12:52:22;9.63;;;2.63;;
21416;SDS011;10869;52.238;10.716;2023-03-25T13:07:31;7.90;;;1.97;;
21416;SDS011;10869;52.238;10.716;2023-03-25T13:10:21;9.03;;;2.00;;
21416;SDS011;10869;52.238;10.716;2023-03-25T13:12:50;8.37;;;1.63;;
21416;SDS011;10869;52.238;10.716;2023-03-25T13:15:29;4.47;;;1.53;;
21416;SDS011;10869;52.238;10.716;2023-03-25T13:18:02;7.10;;;1.80;;
21416;SDS011;10869;52.238;10.716;2023-03-25T13:24:22;7.97;;;2.07;;
21416;SDS011;10869;52.238;10.716;2023-03-25T13:30:31;9.07;;;1.50;;
21416;SDS011;10869;52.238;10.716;2023-03-25T13:33:05;12.10;;;3.30;;
21416;SDS011;10869;52.238;10.716;2023-03-25T13:35:45;9.67;;;2.60;;
21416;SDS011;10869;52.238;10.716;2023-03-25T13:38:18;9.87;;;2.13;;
21416;SDS011;10869;52.238;10.716;2023-03-25T13:41:11;7.23;;;2.00;;
21416;SDS011;10869;52.238;10.716;2023-03-25T13:46:52;8.37;;;2.73;;
21416;SDS011;10869;52.238;10.716;2023-03-25T13:49:29;6.30;;;1.83;;
21416;SDS011;10869;52.238;10.716;2023-03-25T13:51:56;8.03;;;1.77;;
21416;SDS011;10869;52.238;10.716;2023-03-25T13:54:25;6.27;;;1.70;;
21416;SDS011;10869;52.238;10.716;2023-03-25T14:02:17;7.90;;;1.50;;
21416;SDS011;10869;52.238;10.716;2023-03-25T14:05:19;6.37;;;1.37;;
21416;SDS011;10869;52.238;10.716;2023-03-25T14:08:30;2.43;;;1.03;;
21416;SDS011;10869;52.238;10.716;2023-03-25T14:14:16;10.83;;;1.80;;
21416;SDS011;10869;52.238;10.716;2023-03-25T14:16:46;7.93;;;1.43;;
21416;SDS011;10869;52.238;10.716;2023-03-25T14:19:18;5.27;;;1.50;;
21416;SDS011;10869;52.238;10.716;2023-03-25T14:21:49;7.63;;;1.47;;
21416;SDS011;10869;52.238;10.716;2023-03-25T14:26:52;6.17;;;1.60;;
21416;SDS011;10869;52.238;10.716;2023-03-25T14:29:45;7.57;;;1.67;;
21416;SDS011;10869;52.238;10.716;2023-03-25T14:32:25;14.23;;;1.97;;
21416;SDS011;10869;52.238;10.716;2023-03-25T14:38:18;25.60;;;4.00;;
21416;SDS011;10869;52.238;10.716;2023-03-25T14:40:48;6.90;;;1.90;;
21416;SDS011;10869;52.238;10.716;2023-03-25T14:49:20;4.80;;;1.43;;
21416;SDS011;10869;52.238;10.716;2023-03-25T14:51:55;8.70;;;2.13;;
21416;SDS011;10869;52.238;10.716;2023-03-25T15:03:10;8.50;;;3.00;;
21416;SDS011;10869;52.238;10.716;2023-03-25T15:05:41;7.43;;;2.10;;
21416;SDS011;10869;52.238;10.716;2023-03-25T15:10:49;6.07;;;1.63;;
21416;SDS011;10869;52.238;10.716;2023-03-25T15:13:28;6.37;;;1.47;;
21416;SDS011;10869;52.238;10.716;2023-03-25T15:16:02;3.93;;;1.27;;
21416;SDS011;10869;52.238;10.716;2023-03-25T15:27:00;7.20;;;1.83;;
21416;SDS011;10869;52.238;10.716;2023-03-25T15:48:50;8.80;;;2.23;;
21416;SDS011;10869;52.238;10.716;2023-03-25T15:54:44;9.90;;;2.40;;
21416;SDS011;10869;52.238;10.716;2023-03-25T16:00:36;9.13;;;2.40;;
21416;SDS011;10869;52.238;10.716;2023-03-25T16:03:07;10.70;;;2.87;;
21416;SDS011;10869;52.238;10.716;2023-03-25T17:24:06;9.90;;;3.20;;
21416;SDS011;10869;52.238;10.716;2023-03-25T17:26:22;10.90;;;3.30;;
21416;SDS011;10869;52.238;10.716;2023-03-25T17:28:57;10.80;;;3.43;;
21416;SDS011;10869;52.238;10.716;2023-03-25T17:31:37;9.03;;;3.03;;
21416;SDS011;10869;52.238;10.716;2023-03-25T17:36:45;13.97;;;4.90;;
21416;SDS011;10869;52.238;10.716;2023-03-25T17:39:31;12.53;;;4.30;;
21416;SDS011;10869;52.238;10.716;2023-03-25T17:41:58;10.57;;;4.90;;
21416;SDS011;10869;52.238;10.716;2023-03-25T17:47:22;11.70;;;4.50;;
21416;SDS011;10869;52.238;10.716;2023-03-25T17:49:55;14.10;;;5.00;;
21416;SDS011;10869;52.238;10.716;2023-03-25T17:55:45;12.37;;;4.07;;
21416;SDS011;10869;52.238;10.716;2023-03-25T17:58:12;8.13;;;3.37;;
21416;SDS011;10869;52.238;10.716;2023-03-25T18:00:40;8.93;;;3.87;;
21416;SDS011;10869;52.238;10.716;2023-03-25T18:03:11;6.33;;;2.40;;
21416;SDS011;10869;52.238;10.716;2023-03-25T18:08:33;9.63;;;3.03;;
21416;SDS011;10869;52.238;10.716;2023-03-25T18:11:09;7.67;;;3.47;;
21416;SDS011;10869;52.238;10.716;2023-03-25T18:13:36;23.37;;;11.00;;
21416;SDS011;10869;52.238;10.716;2023-03-25T18:16:09;18.67;;;7.53;;
21416;SDS011;10869;52.238;10.716;2023-03-25T18:18:43;13.27;;;5.30;;
21416;SDS011;10869;52.238;10.716;2023-03-25T18:21:19;10.13;;;3.73;;
21416;SDS011;10869;52.238;10.716;2023-03-25T18:23:52;11.60;;;4.13;;
21416;SDS011;10869;52.238;10.716;2023-03-25T18:26:20;11.97;;;3.77;;
21416;SDS011;10869;52.238;10.716;2023-03-25T18:28:46;7.30;;;2.67;;
21416;SDS011;10869;52.238;10.716;2023-03-25T18:31:17;8.83;;;2.47;;
21416;SDS011;10869;52.238;10.716;2023-03-25T18:39:44;11.53;;;2.47;;
21416;SDS011;10869;52.238;10.716;2023-03-25T18:42:16;6.87;;;3.03;;
21416;SDS011;10869;52.238;10.716;2023-03-25T18:44:47;11.17;;;2.57;;
21416;SDS011;10869;52.238;10.716;2023-03-25T18:47:16;6.37;;;2.20;;
21416;SDS011;10869;52.238;10.716;2023-03-25T18:49:53;6.73;;;2.33;;
21416;SDS011;10869;52.238;10.716;2023-03-25T18:55:32;7.17;;;1.70;;
21416;SDS011;10869;52.238;10.716;2023-03-25T18:58:20;7.23;;;2.17;;
21416;SDS011;10869;52.238;10.716;2023-03-25T19:01:41;5.97;;;1.80;;
21416;SDS011;10869;52.238;10.716;2023-03-25T19:10:27;10.83;;;3.87;;
21416;SDS011;10869;52.238;10.716;2023-03-25T19:13:07;8.67;;;2.93;;
21416;SDS011;10869;52.238;10.716;2023-03-25T19:36:20;9.03;;;3.37;;
21416;SDS011;10869;52.238;10.716;2023-03-25T19:57:23;13.43;;;3.63;;
21416;SDS011;10869;52.238;10.716;2023-03-25T19:59:54;6.93;;;2.10;;
21416;SDS011;10869;52.238;10.716;2023-03-25T20:02:41;8.33;;;2.47;;
21416;SDS011;10869;52.238;10.716;2023-03-25T20:14:48;8.40;;;3.10;;
21416;SDS011;10869;52.238;10.716;2023-03-25T20:17:36;8.57;;;2.50;;
21416;SDS011;10869;52.238;10.716;2023-03-25T20:20:07;12.00;;;3.07;;
21416;SDS011;10869;52.238;10.716;2023-03-25T20:26:25;6.73;;;2.40;;
21416;SDS011;10869;52.238;10.716;2023-03-25T20:29:09;8.80;;;2.57;;
21416;SDS011;10869;52.238;10.716;2023-03-25T20:31:37;5.53;;;2.17;;
21416;SDS011;10869;52.238;10.716;2023-03-25T20:34:03;7.73;;;2.47;;
21416;SDS011;10869;52.238;10.716;2023-03-25T20:36:30;5.33;;;1.83;;
21416;SDS011;10869;52.238;10.716;2023-03-25T20:38:56;8.57;;;2.13;;
21416;SDS011;10869;52.238;10.716;2023-03-25T20:41:23;4.47;;;2.20;;
21416;SDS011;10869;52.238;10.716;2023-03-25T20:43:50;5.43;;;1.90;;
21416;SDS011;10869;52.238;10.716;2023-03-25T20:46:16;8.90;;;1.97;;
21416;SDS011;10869;52.238;10.716;2023-03-25T20:51:23;7.13;;;2.00;;
21416;SDS011;10869;52.238;10.716;2023-03-25T20:53:50;5.67;;;1.80;;
21416;SDS011;10869;52.238;10.716;2023-03-25T20:56:17;6.63;;;2.10;;
21416;SDS011;10869;52.238;10.716;2023-03-25T20:58:43;5.07;;;2.00;;
